Terminal Aerodrome Forecast
Issued by NWS

Home | Current Version | Previous Version | Text Only | Print | Product List | Glossary On
Versions: 1 2 3 4 5 6 7 8 9 10 11 12 13 14 15 16 17
341
FTUS46 KMTR 291722
TAFSJC
TAF
KSJC 291722Z 2918/3018 31009KT P6SM BKN015
     FM291930 31011KT P6SM FEW020
     FM300100 30015G20KT P6SM SCT015
     FM300500 31006KT P6SM OVC015
     FM300900 VRB03KT P6SM OVC012
     FM301500 30006KT P6SM OVC015=

USA.gov is the U.S. government's official web portal to all federal, state and local government web resources and services.